createdAt,value
2022-09-28T00:00:48.210Z,18.21
2022-09-28T00:06:10.730Z,18.72
2022-09-28T00:11:15.937Z,17.58
2022-09-28T00:16:24.613Z,17.29
2022-09-28T00:21:32.499Z,17.90
2022-09-28T00:26:36.210Z,17.78
2022-09-28T00:31:39.924Z,17.91
2022-09-28T00:36:47.021Z,18.17
2022-09-28T00:41:52.107Z,17.74
2022-09-28T00:47:20.386Z,18.00
2022-09-28T00:53:18.627Z,18.24
2022-09-28T00:58:32.376Z,18.66
2022-09-28T01:03:38.793Z,18.74
2022-09-28T01:08:45.045Z,16.83
2022-09-28T01:13:54.803Z,16.51
2022-09-28T01:19:43.045Z,17.76
2022-09-28T01:24:49.611Z,18.16
2022-09-28T01:30:16.026Z,18.42
2022-09-28T01:35:35.935Z,16.74
2022-09-28T01:40:41.935Z,17.36
2022-09-28T01:45:51.719Z,18.11
2022-09-28T01:51:04.196Z,16.34
2022-09-28T01:56:26.668Z,16.51
2022-09-28T02:01:44.430Z,17.81
2022-09-28T02:07:03.036Z,18.44
2022-09-28T02:12:20.826Z,17.89
2022-09-28T02:17:24.817Z,15.69
2022-09-28T02:22:34.988Z,16.00
2022-09-28T02:28:05.845Z,16.87
2022-09-28T02:33:28.926Z,17.20
2022-09-28T02:38:33.368Z,17.05
2022-09-28T02:44:00.167Z,15.54
2022-09-28T02:49:21.456Z,16.68
2022-09-28T02:55:14.228Z,17.15
2022-09-28T03:00:24.417Z,17.60
2022-09-28T03:06:00.703Z,17.17
2022-09-28T03:11:35.474Z,14.92
2022-09-28T03:16:44.842Z,15.56
2022-09-28T03:21:48.716Z,16.81
2022-09-28T03:26:52.716Z,17.28
2022-09-28T03:31:56.926Z,17.65
2022-09-28T03:37:00.906Z,17.03
2022-09-28T03:42:05.197Z,14.89
2022-09-28T03:47:09.935Z,14.51
2022-09-28T03:52:15.172Z,16.11
2022-09-28T03:57:19.170Z,16.84
2022-09-28T04:02:23.423Z,17.31
2022-09-28T04:07:30.878Z,17.58
2022-09-28T04:12:35.178Z,17.67
2022-09-28T04:17:40.347Z,17.72
2022-09-28T04:22:44.967Z,16.23
2022-09-28T04:28:08.951Z,14.40
2022-09-28T04:33:12.674Z,14.80
2022-09-28T04:38:23.503Z,16.07
2022-09-28T04:43:39.986Z,16.78
2022-09-28T04:48:44.007Z,17.27
2022-09-28T04:53:48.136Z,17.66
2022-09-28T04:58:52.976Z,18.02
2022-09-28T05:03:57.355Z,16.58
2022-09-28T05:09:01.762Z,15.23
2022-09-28T05:14:06.615Z,16.41
2022-09-28T05:19:12.146Z,17.53
2022-09-28T05:24:16.206Z,17.95
2022-09-28T05:29:20.426Z,17.94
2022-09-28T05:34:24.265Z,16.20
2022-09-28T05:39:28.088Z,15.79
2022-09-28T05:44:32.120Z,17.28
2022-09-28T05:49:35.972Z,17.85
2022-09-28T05:54:40.064Z,17.54
2022-09-28T05:59:44.325Z,15.70
2022-09-28T06:04:50.296Z,15.21
2022-09-28T06:09:54.732Z,16.52
2022-09-28T06:14:59.357Z,17.08
2022-09-28T06:20:02.992Z,17.51
2022-09-28T06:25:08.444Z,17.74
2022-09-28T06:30:13.065Z,17.68
2022-09-28T06:35:17.144Z,16.01
2022-09-28T06:40:23.145Z,14.87
2022-09-28T06:45:29.496Z,15.87
2022-09-28T06:50:41.383Z,16.83
2022-09-28T06:55:50.611Z,17.40
2022-09-28T07:00:59.812Z,17.43
2022-09-28T07:06:05.004Z,16.17
2022-09-28T07:11:09.195Z,14.56
2022-09-28T07:16:13.579Z,14.84
2022-09-28T07:21:27.786Z,17.18
2022-09-28T07:26:34.383Z,17.98
2022-09-28T07:31:38.915Z,17.29
2022-09-28T07:36:42.776Z,15.24
2022-09-28T07:41:46.791Z,15.61
2022-09-28T07:46:51.109Z,16.64
2022-09-28T07:51:54.958Z,17.15
2022-09-28T07:56:59.268Z,17.23
2022-09-28T08:02:02.948Z,17.36
2022-09-28T08:07:12.624Z,15.67
2022-09-28T08:12:16.235Z,16.81
2022-09-28T08:17:20.002Z,17.10
2022-09-28T08:22:24.240Z,15.95
2022-09-28T08:27:28.142Z,17.62
2022-09-28T08:32:33.277Z,16.65
2022-09-28T08:37:37.155Z,16.22
2022-09-28T08:42:43.840Z,17.91
2022-09-28T08:48:29.743Z,17.20
2022-09-28T08:53:50.369Z,16.79
2022-09-28T08:59:01.192Z,18.43
2022-09-28T09:04:08.052Z,17.31
2022-09-28T09:10:04.082Z,17.23
2022-09-28T09:15:25.564Z,17.25
2022-09-28T09:21:02.623Z,17.59
2022-09-28T09:26:23.547Z,17.57
2022-09-28T09:32:32.245Z,17.16
2022-09-28T09:38:21.809Z,17.37
2022-09-28T09:43:51.230Z,17.24
2022-09-28T09:49:12.170Z,17.44
2022-09-28T09:54:45.952Z,17.52
2022-09-28T09:59:50.314Z,17.63
2022-09-28T10:05:26.420Z,17.78
2022-09-28T10:10:37.880Z,18.16
2022-09-28T10:15:46.299Z,17.24
2022-09-28T10:20:55.925Z,18.07
2022-09-28T10:26:12.423Z,16.82
2022-09-28T10:31:51.469Z,18.34
2022-09-28T10:37:12.733Z,17.99
2022-09-28T10:42:31.144Z,16.31
2022-09-28T10:47:37.045Z,17.67
2022-09-28T10:52:46.228Z,16.70
2022-09-28T10:57:50.817Z,17.09
2022-09-28T11:02:55.412Z,17.69
2022-09-28T11:08:06.027Z,16.75
2022-09-28T11:13:11.078Z,16.15
2022-09-28T11:18:34.070Z,15.45
2022-09-28T11:23:38.212Z,15.90
2022-09-28T11:28:43.538Z,16.11
2022-09-28T11:33:48.208Z,15.13
2022-09-28T11:39:19.959Z,16.19
2022-09-28T11:44:46.849Z,15.28
2022-09-28T11:49:57.924Z,16.42
2022-09-28T11:55:22.762Z,16.84
2022-09-28T12:00:29.520Z,16.20
2022-09-28T12:05:45.477Z,15.71
2022-09-28T12:11:16.164Z,15.89
2022-09-28T12:17:07.323Z,17.89
2022-09-28T12:22:25.347Z,16.93
2022-09-28T12:27:39.378Z,16.15
2022-09-28T12:33:02.650Z,15.67
2022-09-28T12:38:33.311Z,15.28
2022-09-28T12:44:29.416Z,14.99
2022-09-28T12:50:36.581Z,15.43
2022-09-28T12:55:43.049Z,16.76
2022-09-28T13:01:22.151Z,15.91
2022-09-28T13:06:45.649Z,15.46
2022-09-28T13:12:12.138Z,15.25
2022-09-28T13:17:49.008Z,14.95
2022-09-28T13:23:24.316Z,14.72
2022-09-28T13:28:30.286Z,14.62
2022-09-28T13:33:39.878Z,14.74
2022-09-28T13:38:52.700Z,15.08
2022-09-28T13:44:08.493Z,15.25
2022-09-28T13:49:47.808Z,15.34
2022-09-28T13:55:18.903Z,15.48
2022-09-28T14:00:51.648Z,15.67
2022-09-28T14:06:28.578Z,15.70
2022-09-28T14:11:37.288Z,16.47
2022-09-28T14:16:46.320Z,17.32
2022-09-28T14:21:59.277Z,17.18
2022-09-28T14:27:39.668Z,16.46
2022-09-28T14:33:23.504Z,15.83
2022-09-28T14:39:16.956Z,16.55
2022-09-28T14:44:22.200Z,19.32
2022-09-28T14:49:34.049Z,20.86
2022-09-28T14:54:53.939Z,19.99
2022-09-28T15:00:00.579Z,18.76
2022-09-28T15:05:07.443Z,18.54
2022-09-28T15:10:32.648Z,19.07
2022-09-28T15:15:41.711Z,19.94
2022-09-28T15:20:50.595Z,20.37
2022-09-28T15:25:56.126Z,19.84
2022-09-28T15:31:03.286Z,18.58
2022-09-28T15:36:10.549Z,17.73
2022-09-28T15:41:14.860Z,17.59
2022-09-28T15:46:21.869Z,17.79
2022-09-28T15:51:28.819Z,17.41
2022-09-28T15:56:33.068Z,16.53
2022-09-28T16:01:44.223Z,15.51
2022-09-28T16:07:33.975Z,14.67
2022-09-28T16:12:38.105Z,14.03
2022-09-28T16:17:42.657Z,13.60
2022-09-28T16:22:47.417Z,13.17
2022-09-28T16:27:54.660Z,14.12
2022-09-28T16:33:06.261Z,17.13
2022-09-28T16:38:14.972Z,17.15
2022-09-28T16:43:39.510Z,15.26
2022-09-28T16:48:50.370Z,14.18
2022-09-28T16:54:14.362Z,14.80
2022-09-28T16:59:19.460Z,17.63
2022-09-28T17:04:25.877Z,17.27
2022-09-28T17:09:29.788Z,15.19
2022-09-28T17:14:34.643Z,14.03
2022-09-28T17:19:38.886Z,15.77
2022-09-28T17:24:42.817Z,17.85
2022-09-28T17:29:46.944Z,16.99
2022-09-28T17:35:00.879Z,15.03
2022-09-28T17:40:28.752Z,13.80
2022-09-28T17:45:39.694Z,15.43
2022-09-28T17:50:47.757Z,17.66
2022-09-28T17:55:51.936Z,16.73
2022-09-28T18:00:55.698Z,14.81
2022-09-28T18:06:11.272Z,13.52
2022-09-28T18:11:16.229Z,13.86
2022-09-28T18:16:20.075Z,15.08
2022-09-28T18:21:24.107Z,13.90
2022-09-28T18:26:28.996Z,15.85
2022-09-28T18:31:34.045Z,16.34
2022-09-28T18:36:37.906Z,14.31
2022-09-28T18:41:42.857Z,13.07
2022-09-28T18:46:46.633Z,13.28
2022-09-28T18:51:51.318Z,15.91
2022-09-28T18:56:57.526Z,16.07
2022-09-28T19:02:02.442Z,14.08
2022-09-28T19:07:08.920Z,12.86
2022-09-28T19:12:13.875Z,13.12
2022-09-28T19:17:18.674Z,15.85
2022-09-28T19:22:22.664Z,16.36
2022-09-28T19:27:26.793Z,14.50
2022-09-28T19:32:31.019Z,13.22
2022-09-28T19:37:40.082Z,13.54
2022-09-28T19:42:44.510Z,16.00
2022-09-28T19:47:49.870Z,17.01
2022-09-28T19:52:54.015Z,16.44
2022-09-28T19:58:02.294Z,14.40
2022-09-28T20:03:06.535Z,13.51
2022-09-28T20:08:14.843Z,15.37
2022-09-28T20:13:19.738Z,14.49
2022-09-28T20:18:23.826Z,14.19
2022-09-28T20:23:27.704Z,15.16
2022-09-28T20:28:33.404Z,14.64
2022-09-28T20:33:37.814Z,14.08
2022-09-28T20:38:42.657Z,14.62
2022-09-28T20:43:48.165Z,14.73
2022-09-28T20:48:52.381Z,15.31
2022-09-28T20:54:01.454Z,14.90
2022-09-28T20:59:08.465Z,14.29
2022-09-28T21:04:13.246Z,15.35
2022-09-28T21:09:17.274Z,14.56
2022-09-28T21:14:21.815Z,12.91
2022-09-28T21:19:25.959Z,12.96
2022-09-28T21:24:29.885Z,15.36
2022-09-28T21:29:33.703Z,16.55
2022-09-28T21:34:37.728Z,15.48
2022-09-28T21:39:41.554Z,13.77
2022-09-28T21:44:45.134Z,14.81
2022-09-28T21:49:49.093Z,16.98
2022-09-28T21:54:53.037Z,15.51
2022-09-28T21:59:56.955Z,13.84
2022-09-28T22:05:00.573Z,14.41
2022-09-28T22:10:04.614Z,16.89
2022-09-28T22:15:09.514Z,16.15
2022-09-28T22:20:13.382Z,13.95
2022-09-28T22:25:18.018Z,13.92
2022-09-28T22:30:22.834Z,16.37
2022-09-28T22:35:27.006Z,16.28
2022-09-28T22:40:31.184Z,13.98
2022-09-28T22:45:34.958Z,13.23
2022-09-28T22:50:39.682Z,15.78
2022-09-28T22:55:43.316Z,16.79
2022-09-28T23:00:47.143Z,14.84
2022-09-28T23:05:56.394Z,13.27
2022-09-28T23:11:00.216Z,14.93
2022-09-28T23:16:08.815Z,16.43
2022-09-28T23:21:20.132Z,16.17
2022-09-28T23:26:28.104Z,13.94
2022-09-28T23:31:33.677Z,13.74
2022-09-28T23:36:37.608Z,16.15
2022-09-28T23:41:41.366Z,15.98
2022-09-28T23:46:45.091Z,13.95
2022-09-28T23:51:48.843Z,15.57
2022-09-28T23:56:52.864Z,15.97
